Time;durP1;ratioP1;P1;durP2;ratioP2;P2;SDS_P1;SDS_P2;PMS_P1;PMS_P2;Temp;Humidity;BMP_temperature;BMP_pressure;BME280_temperature;BME280_humidity;BME280_pressure;Samples;Min_cycle;Max_cycle;Signal;HPM_P1;HPM_P2
2022/05/28 00:00:01;;;;;;;7.63;2.85;;;16.40;99.90;;;;;;4193749;28;20552;-51
2022/05/28 00:02:22;;;;;;;4.20;2.22;;;16.30;99.90;;;;;;4193443;28;20075;-48
2022/05/28 00:04:43;;;;;;;5.05;2.70;;;16.20;99.90;;;;;;4193586;28;20541;-51
2022/05/28 00:07:04;;;;;;;5.47;2.55;;;16.10;99.90;;;;;;4195129;28;20159;-51
2022/05/28 00:09:25;;;;;;;7.90;3.42;;;16.10;99.90;;;;;;4196891;28;20063;-50
2022/05/28 00:11:47;;;;;;;8.40;2.47;;;16.00;99.90;;;;;;4196509;28;20577;-51
2022/05/28 00:14:09;;;;;;;11.02;3.05;;;16.00;99.90;;;;;;4196804;28;20094;-53
2022/05/28 00:16:30;;;;;;;8.50;2.05;;;16.00;99.90;;;;;;4197045;28;20106;-50
2022/05/28 00:18:53;;;;;;;7.25;3.00;;;15.90;99.90;;;;;;4196344;28;20055;-50
2022/05/28 00:21:14;;;;;;;;;;;15.90;99.90;;;;;;4197018;28;20987;-49
2022/05/28 00:23:35;;;;;;;12.02;3.08;;;15.80;99.90;;;;;;4196866;28;20005;-49
2022/05/28 00:25:56;;;;;;;8.68;2.97;;;15.80;99.90;;;;;;4196710;28;20424;-51
2022/05/28 00:28:21;;;;;;;12.02;3.92;;;15.70;99.90;;;;;;4179759;28;20515;-49
2022/05/28 00:30:41;;;;;;;8.23;4.10;;;15.70;99.90;;;;;;4192489;28;20047;-51
2022/05/28 00:33:02;;;;;;;12.82;3.92;;;15.60;99.90;;;;;;4196317;28;20067;-50
2022/05/28 00:35:23;;;;;;;8.80;3.90;;;15.60;99.90;;;;;;4196509;28;20055;-53
2022/05/28 00:37:47;;;;;;;9.70;3.40;;;15.60;99.90;;;;;;4180192;28;20079;-51
2022/05/28 00:40:19;;;;;;;6.97;4.20;;;15.60;99.90;;;;;;4203018;28;20097;-53
2022/05/28 00:42:40;;;;;;;7.80;3.92;;;15.60;99.90;;;;;;4213271;28;20059;-52
2022/05/28 00:45:01;;;;;;;9.00;4.28;;;15.60;99.90;;;;;;4179993;28;20067;-52
2022/05/28 00:47:22;;;;;;;10.75;4.25;;;15.60;99.90;;;;;;4179964;28;20052;-49
2022/05/28 00:49:43;;;;;;;15.48;4.25;;;15.60;99.90;;;;;;4191707;28;20044;-51
2022/05/28 00:52:07;;;;;;;12.02;4.75;;;15.50;99.90;;;;;;4196284;28;20457;-51
2022/05/28 00:54:35;;;;;;;8.23;4.47;;;15.50;99.90;;;;;;4196660;28;20094;-51
2022/05/28 00:56:56;;;;;;;11.95;4.55;;;15.50;99.90;;;;;;4179672;28;20051;-51
2022/05/28 00:59:17;;;;;;;9.50;4.65;;;15.50;99.90;;;;;;4191314;28;20411;-49
2022/05/28 01:01:43;;;;;;;7.03;4.35;;;15.60;99.90;;;;;;4195876;28;20408;-51
2022/05/28 01:04:23;;;;;;;13.05;3.90;;;15.60;99.90;;;;;;4196427;28;20074;-49
2022/05/28 01:06:59;;;;;;;4.20;3.55;;;15.60;99.90;;;;;;4179366;28;20535;-53
2022/05/28 01:09:29;;;;;;;5.47;3.72;;;15.70;99.90;;;;;;4195309;28;20051;-52
2022/05/28 01:12:13;;;;;;;8.45;3.10;;;15.70;99.90;;;;;;4194762;28;20146;-53
2022/05/28 01:14:52;;;;;;;8.30;4.13;;;15.70;99.90;;;;;;4196049;28;20051;-52
2022/05/28 01:17:24;;;;;;;8.68;3.13;;;15.70;99.90;;;;;;4193862;28;20056;-51
2022/05/28 01:20:03;;;;;;;7.57;3.90;;;15.70;99.90;;;;;;4196030;28;20067;-52
2022/05/28 01:22:42;;;;;;;6.80;3.05;;;15.70;99.90;;;;;;4195370;28;20086;-52
2022/05/28 01:25:09;;;;;;;10.63;3.00;;;15.60;99.90;;;;;;4195590;28;20161;-52
2022/05/28 01:27:45;;;;;;;6.10;4.18;;;15.60;99.90;;;;;;4195514;28;20051;-51
2022/05/28 01:30:09;;;;;;;7.45;3.35;;;15.70;99.90;;;;;;4195724;28;20058;-52
2022/05/28 01:32:31;;;;;;;4.30;1.98;;;15.70;99.90;;;;;;4195840;28;20046;-51
2022/05/28 01:34:54;;;;;;;6.80;3.08;;;15.80;99.90;;;;;;4211629;28;20081;-52
2022/05/28 01:37:17;;;;;;;4.40;2.28;;;15.70;99.90;;;;;;4203604;28;20051;-52
2022/05/28 01:39:42;;;;;;;7.28;3.58;;;15.70;99.90;;;;;;4195802;28;20058;-50
2022/05/28 01:42:06;;;;;;;9.95;3.33;;;15.70;99.90;;;;;;4195857;28;20526;-51
2022/05/28 01:44:28;;;;;;;7.53;3.40;;;15.60;99.90;;;;;;4195139;28;20472;-49
2022/05/28 01:46:50;;;;;;;4.03;1.85;;;15.50;99.90;;;;;;4195582;28;20047;-52
2022/05/28 01:49:13;;;;;;;9.65;3.97;;;15.50;99.90;;;;;;4195561;28;20098;-51
2022/05/28 01:51:39;;;;;;;8.25;2.58;;;15.50;99.90;;;;;;4195438;28;20103;-52
2022/05/28 01:54:11;;;;;;;7.07;3.80;;;15.40;99.90;;;;;;4195231;28;20488;-52
2022/05/28 01:56:32;;;;;;;16.17;5.03;;;15.40;99.90;;;;;;4195202;28;20090;-51
2022/05/28 01:58:53;;;;;;;5.75;3.58;;;15.30;99.90;;;;;;4195536;28;20125;-50
2022/05/28 02:01:14;;;;;;;14.82;3.97;;;15.30;99.90;;;;;;4195667;28;20078;-51
2022/05/28 02:03:39;;;;;;;9.15;3.95;;;15.30;99.90;;;;;;4195275;28;20581;-50
2022/05/28 02:06:00;;;;;;;6.85;4.00;;;15.30;99.90;;;;;;4195434;28;20056;-51
2022/05/28 02:08:21;;;;;;;4.85;3.95;;;15.20;99.90;;;;;;4194867;28;20523;-49
2022/05/28 02:10:48;;;;;;;12.52;4.25;;;15.20;99.90;;;;;;4194855;28;20055;-52
2022/05/28 02:13:49;;;;;;;12.13;4.95;;;15.20;99.90;;;;;;4194711;28;20174;-51
2022/05/28 02:16:15;;;;;;;8.07;4.53;;;15.30;99.90;;;;;;4194135;28;20094;-51
2022/05/28 02:18:50;;;;;;;4.53;3.15;;;15.30;99.90;;;;;;4182178;28;20052;-52
2022/05/28 02:21:21;;;;;;;7.15;3.47;;;15.40;99.90;;;;;;4178461;28;20111;-52
2022/05/28 02:24:01;;;;;;;12.25;3.95;;;15.40;99.90;;;;;;4178580;28;20481;-53
2022/05/28 02:26:57;;;;;;;5.93;2.67;;;15.40;99.90;;;;;;4178600;28;20059;-52
2022/05/28 02:29:18;;;;;;;5.78;2.47;;;15.40;99.90;;;;;;4177794;28;20087;-52
2022/05/28 02:31:45;;;;;;;9.00;2.92;;;15.40;99.90;;;;;;4178467;28;20102;-51
2022/05/28 02:34:06;;;;;;;10.75;4.30;;;15.40;99.90;;;;;;4178552;28;20055;-51
2022/05/28 02:36:28;;;;;;;8.10;2.70;;;15.40;99.90;;;;;;4178594;28;20163;-53
2022/05/28 02:38:50;;;;;;;14.53;2.53;;;15.40;99.90;;;;;;4178606;28;20056;-52
2022/05/28 02:41:11;;;;;;;4.22;2.42;;;15.40;99.90;;;;;;4178196;28;20358;-52
2022/05/28 02:43:32;;;;;;;6.35;3.10;;;15.40;99.90;;;;;;4184460;28;20350;-53
2022/05/28 02:45:52;;;;;;;24.77;3.95;;;15.30;99.90;;;;;;4194701;28;20121;-52
2022/05/28 02:48:14;;;;;;;2.63;2.50;;;15.30;99.90;;;;;;4193784;28;20587;-52
2022/05/28 02:50:35;;;;;;;16.88;3.28;;;15.20;99.90;;;;;;4183680;28;20598;-52
2022/05/28 02:52:56;;;;;;;80.13;5.05;;;15.20;99.90;;;;;;4178068;28;20486;-53
2022/05/28 02:55:17;;;;;;;40.10;3.45;;;15.10;99.90;;;;;;4177894;28;20090;-52
2022/05/28 02:57:38;;;;;;;47.35;4.70;;;15.10;99.90;;;;;;4178027;28;20055;-51
2022/05/28 02:59:59;;;;;;;119.53;6.70;;;15.00;99.90;;;;;;4178151;28;20055;-51
2022/05/28 03:02:19;;;;;;;183.63;8.82;;;15.00;99.90;;;;;;4177722;28;20066;-51
2022/05/28 03:04:40;;;;;;;60.75;4.50;;;15.00;99.90;;;;;;4178062;28;20067;-52
2022/05/28 03:07:02;;;;;;;109.65;5.95;;;14.90;99.90;;;;;;4179131;28;20056;-52
2022/05/28 03:09:22;;;;;;;73.20;5.65;;;14.90;99.90;;;;;;4194427;28;20095;-52
2022/05/28 03:11:44;;;;;;;26.27;3.53;;;14.90;99.90;;;;;;4194741;28;20051;-52
2022/05/28 03:14:05;;;;;;;20.73;3.72;;;14.90;99.90;;;;;;4194363;28;20094;-52
2022/05/28 03:16:26;;;;;;;25.08;4.38;;;14.90;99.90;;;;;;4194468;28;20063;-53
2022/05/28 03:18:47;;;;;;;4.57;4.07;;;14.90;99.90;;;;;;4193638;28;20071;-53
2022/05/28 03:21:08;;;;;;;7.75;3.95;;;14.90;99.90;;;;;;4201595;28;20062;-52
2022/05/28 03:23:30;;;;;;;10.32;3.92;;;14.90;99.90;;;;;;4210513;28;20097;-53
2022/05/28 03:25:53;;;;;;;6.68;4.25;;;14.90;99.90;;;;;;4194199;28;20067;-52
2022/05/28 03:28:15;;;;;;;9.75;4.45;;;14.90;99.90;;;;;;4194083;28;20090;-52
2022/05/28 03:30:36;;;;;;;23.48;3.92;;;14.90;99.90;;;;;;4193969;28;20056;-52
2022/05/28 03:32:59;;;;;;;6.85;3.33;;;14.90;99.90;;;;;;4193979;28;20078;-52
2022/05/28 03:35:19;;;;;;;3.63;3.33;;;14.90;99.90;;;;;;4177659;28;20079;-53
2022/05/28 03:37:40;;;;;;;5.40;3.20;;;14.90;99.90;;;;;;4188736;28;20128;-52
2022/05/28 03:40:01;;;;;;;4.57;3.22;;;15.00;99.90;;;;;;4194135;28;20125;-53
2022/05/28 03:42:25;;;;;;;8.00;4.43;;;15.00;99.90;;;;;;4194040;28;20067;-52
2022/05/28 03:44:45;;;;;;;8.30;3.53;;;15.00;99.90;;;;;;4193459;28;20055;-52
2022/05/28 03:47:08;;;;;;;9.80;2.75;;;15.00;99.90;;;;;;4193449;28;20117;-52
2022/05/28 03:49:31;;;;;;;3.10;2.90;;;15.10;99.90;;;;;;4193892;28;20047;-52
2022/05/28 03:51:53;;;;;;;3.28;2.97;;;15.10;99.90;;;;;;4194226;28;20146;-52
2022/05/28 03:54:14;;;;;;;3.15;1.92;;;15.10;99.90;;;;;;4177382;28;20055;-53
2022/05/28 03:56:40;;;;;;;4.95;3.17;;;15.10;99.90;;;;;;4187739;28;20043;-53
2022/05/28 03:59:02;;;;;;;5.35;2.80;;;15.10;99.90;;;;;;4193998;28;20051;-51
2022/05/28 04:01:23;;;;;;;4.35;2.85;;;15.10;99.90;;;;;;4194035;28;20413;-52
2022/05/28 04:03:44;;;;;;;3.75;3.17;;;15.10;99.90;;;;;;4193997;28;20090;-52
2022/05/28 04:06:05;;;;;;;3.75;3.42;;;15.10;99.90;;;;;;4194176;28;20575;-51
2022/05/28 04:08:26;;;;;;;3.53;3.28;;;15.10;99.90;;;;;;4193675;28;20059;-49
2022/05/28 04:10:49;;;;;;;3.45;3.25;;;15.10;99.90;;;;;;4193204;28;20181;-52
2022/05/28 04:13:10;;;;;;;3.40;2.58;;;15.00;99.90;;;;;;4193772;28;20099;-52
2022/05/28 04:15:32;;;;;;;3.60;3.03;;;15.00;99.90;;;;;;4193707;28;20098;-53
2022/05/28 04:17:54;;;;;;;5.10;3.55;;;15.00;99.90;;;;;;4193317;28;20059;-52
2022/05/28 04:20:15;;;;;;;3.35;3.05;;;15.00;99.90;;;;;;4193897;28;20098;-52
2022/05/28 04:22:35;;;;;;;4.13;3.55;;;15.00;99.90;;;;;;4194046;28;20047;-51
2022/05/28 04:24:56;;;;;;;8.05;3.00;;;15.00;99.90;;;;;;4193751;28;20541;-53
2022/05/28 04:27:18;;;;;;;3.47;3.38;;;15.10;99.90;;;;;;4193843;28;20492;-52
2022/05/28 04:29:39;;;;;;;2.83;2.65;;;15.10;99.90;;;;;;4193870;28;20128;-52
2022/05/28 04:32:01;;;;;;;5.03;3.13;;;15.10;99.90;;;;;;4194217;28;20402;-52
2022/05/28 04:34:21;;;;;;;5.15;3.63;;;15.10;99.90;;;;;;4193699;28;20423;-52
2022/05/28 04:36:43;;;;;;;10.27;3.70;;;15.10;99.90;;;;;;4193512;28;20083;-53
2022/05/28 04:39:04;;;;;;;4.90;3.33;;;15.10;99.90;;;;;;4193854;28;20051;-53
2022/05/28 04:41:25;;;;;;;3.80;3.10;;;15.10;99.90;;;;;;4193873;28;20407;-52
2022/05/28 04:43:45;;;;;;;7.97;3.47;;;15.20;99.90;;;;;;4185821;28;20056;-53
2022/05/28 04:46:07;;;;;;;4.28;3.70;;;15.20;99.90;;;;;;4177214;28;20056;-50
2022/05/28 04:48:28;;;;;;;3.50;3.33;;;15.20;99.90;;;;;;4177116;28;20396;-52
2022/05/28 04:50:49;;;;;;;3.55;3.25;;;15.20;99.90;;;;;;4186207;28;20499;-52
2022/05/28 04:53:10;;;;;;;9.88;3.55;;;15.30;99.90;;;;;;4181991;28;20056;-52
2022/05/28 04:55:33;;;;;;;3.22;3.13;;;15.20;99.90;;;;;;4196555;28;20052;-53
2022/05/28 04:57:54;;;;;;;;;;;15.20;99.90;;;;;;4196930;28;20058;-50
2022/05/28 05:00:18;;;;;;;4.35;2.88;;;15.30;99.90;;;;;;4196783;28;19927;-52
2022/05/28 05:02:40;;;;;;;9.70;3.58;;;15.30;99.90;;;;;;4196615;28;20248;-51
2022/05/28 05:05:00;;;;;;;7.28;3.65;;;15.40;99.90;;;;;;4196689;28;20086;-51
2022/05/28 05:07:23;;;;;;;3.92;3.58;;;15.30;99.90;;;;;;4196762;28;20569;-53
2022/05/28 05:09:44;;;;;;;;;;;15.30;99.90;;;;;;4196964;28;20047;-52
2022/05/28 05:12:07;;;;;;;7.80;3.80;;;15.30;99.90;;;;;;4184648;28;19970;-51
2022/05/28 05:14:28;;;;;;;8.38;4.13;;;15.40;99.90;;;;;;4179854;28;20120;-52
2022/05/28 05:16:49;;;;;;;4.45;3.13;;;15.50;99.90;;;;;;4179788;28;20056;-52
2022/05/28 05:19:12;;;;;;;4.70;3.50;;;15.50;99.90;;;;;;4179625;28;20052;-51
2022/05/28 05:21:32;;;;;;;5.88;3.70;;;15.50;99.90;;;;;;4189159;28;20412;-47
2022/05/28 05:23:53;;;;;;;4.03;3.63;;;15.60;99.90;;;;;;4195593;28;20046;-46
2022/05/28 05:26:16;;;;;;;18.05;4.85;;;15.70;99.90;;;;;;4194029;28;20338;-46
2022/05/28 05:28:38;;;;;;;7.22;4.03;;;15.70;99.90;;;;;;4187004;28;20420;-47
2022/05/28 05:31:04;;;;;;;3.38;3.17;;;15.80;99.90;;;;;;4200837;28;20051;-45
2022/05/28 05:33:25;;;;;;;9.68;4.63;;;15.80;99.90;;;;;;4189599;28;20128;-46
2022/05/28 05:35:46;;;;;;;5.88;3.67;;;15.70;99.90;;;;;;4195534;28;20108;-45
2022/05/28 05:38:09;;;;;;;6.55;3.97;;;15.70;99.90;;;;;;4192664;28;20080;-45
2022/05/28 05:40:37;;;;;;;7.13;3.72;;;15.70;99.90;;;;;;4188405;28;20098;-45
2022/05/28 05:42:58;;;;;;;11.18;5.03;;;15.80;99.90;;;;;;4194812;28;20993;-47
2022/05/28 05:45:19;;;;;;;7.18;3.78;;;15.80;99.90;;;;;;4189230;28;20055;-45
2022/05/28 05:47:39;;;;;;;5.22;3.72;;;15.90;99.90;;;;;;4190875;28;20105;-46
2022/05/28 05:50:00;;;;;;;9.07;3.42;;;16.00;99.90;;;;;;4195322;28;20059;-45
2022/05/28 05:52:21;;;;;;;7.40;4.07;;;16.00;99.90;;;;;;4194214;28;20127;-45
2022/05/28 05:54:44;;;;;;;6.43;3.88;;;16.00;99.90;;;;;;4195024;28;20433;-46
2022/05/28 05:57:05;;;;;;;8.77;3.85;;;16.00;99.90;;;;;;4195003;28;20133;-45
2022/05/28 05:59:26;;;;;;;5.00;3.70;;;16.10;99.90;;;;;;4185822;28;20799;-45
2022/05/28 06:01:47;;;;;;;5.75;4.07;;;16.10;99.90;;;;;;4194735;28;20480;-44
2022/05/28 06:04:08;;;;;;;8.27;3.90;;;16.20;99.90;;;;;;4178946;28;20166;-46
2022/05/28 06:06:29;;;;;;;9.98;4.00;;;16.20;99.90;;;;;;4191110;28;20137;-45
2022/05/28 06:08:50;;;;;;;4.95;2.53;;;16.10;99.90;;;;;;4194712;28;20132;-44
2022/05/28 06:11:12;;;;;;;5.18;2.70;;;16.30;99.90;;;;;;4195007;28;20070;-48
2022/05/28 06:13:33;;;;;;;7.35;3.83;;;16.40;99.90;;;;;;4178558;28;20124;-46
2022/05/28 06:15:54;;;;;;;14.73;3.88;;;16.60;99.90;;;;;;4189197;28;20059;-45
2022/05/28 06:18:16;;;;;;;6.22;3.53;;;16.70;99.90;;;;;;4193154;28;20051;-44
2022/05/28 06:20:37;;;;;;;6.93;2.88;;;16.70;99.90;;;;;;4188068;28;20086;-46
2022/05/28 06:22:59;;;;;;;5.30;3.83;;;16.70;99.90;;;;;;4189704;28;20813;-44
2022/05/28 06:25:20;;;;;;;10.57;4.10;;;16.80;99.90;;;;;;4188260;28;20119;-45
2022/05/28 06:27:41;;;;;;;3.65;3.13;;;16.90;99.90;;;;;;4190048;28;20570;-44
2022/05/28 06:30:02;;;;;;;7.65;4.20;;;17.00;99.90;;;;;;4193225;28;20051;-45
2022/05/28 06:32:23;;;;;;;4.55;3.63;;;16.90;99.90;;;;;;4189063;28;20098;-46
2022/05/28 06:34:44;;;;;;;5.90;3.30;;;16.90;99.90;;;;;;4194750;28;20111;-45
2022/05/28 06:37:09;;;;;;;6.65;3.35;;;17.00;99.90;;;;;;4179291;28;20475;-45
2022/05/28 06:39:30;;;;;;;4.57;3.72;;;16.90;99.90;;;;;;4185003;28;20055;-45
2022/05/28 06:41:50;;;;;;;5.30;4.07;;;17.00;99.90;;;;;;4188271;28;20047;-45
2022/05/28 06:44:11;;;;;;;9.27;4.68;;;17.10;99.90;;;;;;4188530;28;20056;-45
2022/05/28 06:46:31;;;;;;;7.47;3.80;;;17.10;99.90;;;;;;4186653;28;20481;-44
2022/05/28 06:48:54;;;;;;;4.15;3.75;;;17.10;99.90;;;;;;4177510;28;20102;-45
2022/05/28 06:51:15;;;;;;;7.95;4.15;;;17.20;99.90;;;;;;4190894;28;20713;-46
2022/05/28 06:53:41;;;;;;;9.73;4.25;;;17.40;99.90;;;;;;4199041;28;20058;-47
2022/05/28 06:56:04;;;;;;;11.35;3.63;;;17.40;99.90;;;;;;4194328;28;20756;-45
2022/05/28 06:58:26;;;;;;;8.20;4.15;;;17.50;99.90;;;;;;4194073;28;20047;-45
2022/05/28 07:00:46;;;;;;;8.93;3.95;;;17.50;99.90;;;;;;4192990;28;20056;-47
2022/05/28 07:03:16;;;;;;;4.30;3.50;;;17.70;99.90;;;;;;4193857;28;20468;-44
2022/05/28 07:05:36;;;;;;;6.88;3.15;;;17.80;99.90;;;;;;4190088;28;20089;-45
2022/05/28 07:08:01;;;;;;;8.77;2.95;;;17.90;99.90;;;;;;4193474;28;20124;-44
2022/05/28 07:10:24;;;;;;;4.32;2.38;;;18.10;99.90;;;;;;4190515;28;20055;-44
2022/05/28 07:12:45;;;;;;;8.95;3.50;;;18.20;99.90;;;;;;4183957;28;20621;-45
2022/05/28 07:15:07;;;;;;;10.85;3.20;;;18.30;99.90;;;;;;4193520;28;20132;-45
2022/05/28 07:17:27;;;;;;;5.83;2.43;;;18.40;99.90;;;;;;4189702;28;20051;-46
2022/05/28 07:19:48;;;;;;;7.03;2.20;;;18.70;99.90;;;;;;4183764;28;20056;-44
2022/05/28 07:22:08;;;;;;;4.80;2.03;;;18.90;99.90;;;;;;4192450;28;20042;-46
2022/05/28 07:24:29;;;;;;;4.75;1.65;;;19.20;99.90;;;;;;4187412;28;20051;-44
2022/05/28 07:26:51;;;;;;;10.90;2.47;;;19.20;99.90;;;;;;4177353;28;20056;-45
2022/05/28 07:29:12;;;;;;;7.10;2.33;;;19.40;99.90;;;;;;4188036;28;20055;-46
2022/05/28 07:31:33;;;;;;;3.78;1.83;;;19.40;99.90;;;;;;4193869;28;20082;-45
2022/05/28 07:33:54;;;;;;;5.47;2.60;;;19.60;99.90;;;;;;4194040;28;20561;-45
2022/05/28 07:36:18;;;;;;;6.32;1.92;;;19.80;99.90;;;;;;4194009;28;20047;-44
2022/05/28 07:38:40;;;;;;;6.82;1.98;;;19.90;99.90;;;;;;4194354;28;20114;-45
2022/05/28 07:41:03;;;;;;;11.63;2.00;;;19.90;99.90;;;;;;4192873;28;20105;-45
2022/05/28 07:43:24;;;;;;;7.75;2.25;;;20.10;99.90;;;;;;4193728;28;20059;-45
2022/05/28 07:45:46;;;;;;;7.32;2.33;;;20.20;99.90;;;;;;4193360;28;20546;-44
2022/05/28 07:48:07;;;;;;;15.73;2.13;;;20.20;99.90;;;;;;4193693;28;20078;-44
2022/05/28 07:50:28;;;;;;;10.38;1.98;;;20.40;99.90;;;;;;4193522;28;20059;-44
2022/05/28 07:52:49;;;;;;;7.82;2.72;;;20.60;99.90;;;;;;4193664;28;20625;-44
2022/05/28 07:55:12;;;;;;;7.55;1.25;;;20.70;99.90;;;;;;4193912;28;20058;-45
2022/05/28 07:57:32;;;;;;;8.70;1.13;;;20.70;99.90;;;;;;4193537;28;20051;-44
2022/05/28 07:59:53;;;;;;;8.25;1.65;;;20.70;99.90;;;;;;4193473;28;20102;-45
2022/05/28 08:02:14;;;;;;;8.20;1.90;;;20.80;99.90;;;;;;4193209;28;20052;-45
2022/05/28 08:04:35;;;;;;;7.35;1.38;;;20.90;99.90;;;;;;4193544;28;20094;-43
2022/05/28 08:06:56;;;;;;;7.72;1.73;;;21.10;99.90;;;;;;4193801;28;20059;-46
2022/05/28 08:09:16;;;;;;;7.78;1.48;;;21.30;99.90;;;;;;4193779;28;20052;-44
2022/05/28 08:11:38;;;;;;;14.38;1.20;;;21.40;99.90;;;;;;4184662;28;20071;-45
2022/05/28 08:13:58;;;;;;;10.63;1.50;;;21.50;99.90;;;;;;4193673;28;20052;-44
2022/05/28 08:16:25;;;;;;;5.15;1.10;;;21.60;99.90;;;;;;4193410;28;20124;-44
2022/05/28 08:18:46;;;;;;;5.55;1.13;;;21.80;99.90;;;;;;4178964;28;20110;-43
2022/05/28 08:23:48;;;;;;;5.38;0.90;;;22.10;99.90;;;;;;4193541;28;20051;-43
2022/05/28 08:26:11;;;;;;;7.40;1.55;;;22.30;99.90;;;;;;4193244;28;20585;-43
2022/05/28 08:28:35;;;;;;;7.20;1.10;;;22.40;99.90;;;;;;4187925;28;20090;-44
2022/05/28 08:30:56;;;;;;;6.97;1.23;;;22.60;99.90;;;;;;4185065;28;20129;-45
2022/05/28 08:33:19;;;;;;;10.55;1.75;;;22.60;99.90;;;;;;4184643;28;20136;-44
2022/05/28 08:35:42;;;;;;;8.00;1.30;;;22.60;99.90;;;;;;4188522;28;20566;-44
2022/05/28 08:38:15;;;;;;;7.25;1.33;;;22.70;99.90;;;;;;4187238;28;20727;-44
2022/05/28 08:40:56;;;;;;;8.05;1.00;;;22.80;99.90;;;;;;4184524;28;20106;-47
2022/05/28 08:43:18;;;;;;;7.10;1.00;;;23.10;99.90;;;;;;4193984;28;20054;-45
2022/05/28 08:45:39;;;;;;;7.85;1.30;;;23.00;99.90;;;;;;4196087;28;20059;-45
2022/05/28 08:48:01;;;;;;;9.13;1.17;;;23.10;99.90;;;;;;4195813;28;20806;-44
2022/05/28 08:50:22;;;;;;;6.43;0.90;;;23.30;99.90;;;;;;4193189;28;20047;-46
2022/05/28 08:52:54;;;;;;;3.78;1.58;;;23.50;99.90;;;;;;4192922;28;20538;-44
2022/05/28 08:55:26;;;;;;;13.73;1.58;;;23.80;99.90;;;;;;4189569;28;20102;-44
2022/05/28 08:58:00;;;;;;;5.00;1.67;;;23.90;99.90;;;;;;4196310;28;20499;-46
2022/05/28 09:00:30;;;;;;;9.07;1.27;;;24.10;99.90;;;;;;4195870;28;20514;-45
2022/05/28 09:02:59;;;;;;;7.50;0.90;;;24.50;99.90;;;;;;4180997;28;20047;-44
2022/05/28 09:05:56;;;;;;;8.45;1.88;;;24.80;99.90;;;;;;4194357;28;20106;-44
2022/05/28 09:08:30;;;;;;;5.90;0.80;;;24.80;99.90;;;;;;4196771;28;20098;-45
2022/05/28 09:10:53;;;;;;;11.00;1.10;;;25.30;99.90;;;;;;4195761;28;20091;-42
2022/05/28 09:13:38;;;;;;;6.60;1.33;;;25.50;99.90;;;;;;4194754;28;20062;-43
2022/05/28 09:16:01;;;;;;;7.15;0.88;;;25.30;99.90;;;;;;4191875;28;20048;-43
2022/05/28 09:18:24;;;;;;;7.60;1.15;;;25.90;99.90;;;;;;4181660;28;20122;-43
2022/05/28 09:20:48;;;;;;;9.05;0.90;;;26.20;99.90;;;;;;4189131;28;20055;-43
2022/05/28 09:23:09;;;;;;;7.72;1.48;;;26.20;99.90;;;;;;4190432;28;20048;-43
2022/05/28 09:25:35;;;;;;;3.90;0.82;;;26.30;99.90;;;;;;4193508;28;20070;-42
2022/05/28 09:27:58;;;;;;;11.70;0.90;;;26.30;99.90;;;;;;4179350;28;20071;-42
2022/05/28 09:30:25;;;;;;;9.85;0.90;;;26.80;99.90;;;;;;4186536;28;20056;-43
2022/05/28 09:33:07;;;;;;;8.05;0.80;;;26.90;99.90;;;;;;4187915;28;20098;-44
2022/05/28 09:35:46;;;;;;;8.13;1.00;;;27.00;99.90;;;;;;4187634;28;20414;-43
2022/05/28 09:38:32;;;;;;;4.63;1.00;;;27.10;99.90;;;;;;4184814;28;20040;-43
2022/05/28 09:41:15;;;;;;;6.75;0.90;;;27.20;99.90;;;;;;4191391;28;20086;-43
2022/05/28 09:44:16;;;;;;;5.32;0.98;;;27.60;98.90;;;;;;4193992;28;20156;-44
2022/05/28 09:46:39;;;;;;;9.65;1.73;;;27.50;99.90;;;;;;4194839;28;20086;-42
2022/05/28 09:49:16;;;;;;;9.27;0.90;;;27.50;99.90;;;;;;4189415;28;20060;-42
2022/05/28 09:51:37;;;;;;;8.30;1.05;;;28.10;99.90;;;;;;4185962;28;20051;-44
2022/05/28 09:54:22;;;;;;;2.70;0.80;;;28.60;99.70;;;;;;4180580;28;20151;-44
2022/05/28 09:57:03;;;;;;;6.30;0.80;;;28.80;99.90;;;;;;4185464;28;20051;-44
2022/05/28 09:59:30;;;;;;;7.88;1.23;;;28.80;95.20;;;;;;4193727;28;20094;-43
2022/05/28 10:02:08;;;;;;;5.00;1.00;;;29.20;97.40;;;;;;4194008;28;20109;-44
2022/05/28 10:04:30;;;;;;;6.82;0.70;;;29.50;95.80;;;;;;4190319;28;20124;-45
2022/05/28 10:06:53;;;;;;;7.05;1.15;;;29.90;97.30;;;;;;4183421;28;20400;-43
2022/05/28 10:09:26;;;;;;;5.88;1.00;;;30.30;97.50;;;;;;4189212;28;20459;-43
2022/05/28 10:11:56;;;;;;;12.07;0.90;;;30.40;92.50;;;;;;4190640;28;20052;-43
2022/05/28 10:14:17;;;;;;;7.55;1.20;;;30.50;96.70;;;;;;4189016;28;20052;-43
2022/05/28 10:16:40;;;;;;;7.72;1.35;;;30.00;94.90;;;;;;4193465;28;20047;-43
2022/05/28 10:19:23;;;;;;;5.65;1.83;;;30.00;95.90;;;;;;4189283;28;20129;-44
2022/05/28 10:21:50;;;;;;;8.10;2.17;;;30.10;96.10;;;;;;4190261;28;20051;-44
2022/05/28 10:24:18;;;;;;;7.38;0.63;;;30.40;96.30;;;;;;4187623;28;20773;-43
2022/05/28 10:26:49;;;;;;;4.13;0.70;;;30.70;93.30;;;;;;4187951;28;20118;-45
2022/05/28 10:29:45;;;;;;;7.82;0.90;;;30.70;94.00;;;;;;4194547;28;20051;-45
2022/05/28 10:32:26;;;;;;;7.10;0.88;;;30.60;96.30;;;;;;4195060;28;20082;-43
2022/05/28 10:35:12;;;;;;;8.50;0.82;;;30.50;96.20;;;;;;4208960;28;20419;-44
2022/05/28 10:37:33;;;;;;;11.23;1.42;;;30.20;95.30;;;;;;4204227;28;20097;-46
2022/05/28 10:40:18;;;;;;;8.20;1.50;;;30.10;95.90;;;;;;4208938;28;20113;-42
2022/05/28 10:42:39;;;;;;;5.03;0.70;;;30.30;94.30;;;;;;4201958;28;20089;-42
2022/05/28 10:45:00;;;;;;;8.60;1.00;;;30.10;92.00;;;;;;4207877;28;20466;-42
2022/05/28 10:47:31;;;;;;;9.68;2.05;;;29.90;93.00;;;;;;4199736;28;20063;-43
2022/05/28 10:50:13;;;;;;;9.52;1.30;;;29.60;95.30;;;;;;4205052;28;20573;-43
2022/05/28 10:53:08;;;;;;;9.65;1.80;;;29.30;96.40;;;;;;4205771;28;20047;-42
2022/05/28 10:55:44;;;;;;;10.07;0.88;;;29.10;95.60;;;;;;4142818;28;20057;-43
2022/05/28 10:58:44;;;;;;;6.13;0.80;;;28.80;96.20;;;;;;4146149;28;20610;-44
2022/05/28 11:01:11;;;;;;;7.43;1.55;;;29.00;96.20;;;;;;4126368;28;20100;-43
2022/05/28 11:03:45;;;;;;;6.03;1.35;;;29.20;95.20;;;;;;4124547;28;20080;-43
2022/05/28 11:06:14;;;;;;;10.73;0.80;;;28.70;95.00;;;;;;4124004;28;20157;-42
2022/05/28 11:09:01;;;;;;;16.38;1.35;;;28.00;94.40;;;;;;4104267;28;20073;-43
2022/05/28 11:11:50;;;;;;;8.98;0.90;;;27.60;96.00;;;;;;4091122;28;20139;-42
2022/05/28 11:14:16;;;;;;;14.77;1.83;;;27.50;95.40;;;;;;4092938;28;20114;-42
2022/05/28 11:16:47;;;;;;;6.53;1.08;;;27.30;93.90;;;;;;4093797;29;20435;-43
2022/05/28 11:19:25;;;;;;;4.53;0.90;;;27.20;94.30;;;;;;4097901;28;20050;-42
2022/05/28 11:22:20;;;;;;;3.85;0.70;;;27.30;94.20;;;;;;4092024;29;20483;-42
2022/05/28 11:24:55;;;;;;;7.60;0.70;;;27.30;94.50;;;;;;4093233;29;20061;-43
2022/05/28 11:27:33;;;;;;;5.78;1.55;;;27.40;94.20;;;;;;4093983;29;20602;-42
2022/05/28 11:30:08;;;;;;;6.18;0.80;;;27.50;93.40;;;;;;4093788;29;20664;-43
2022/05/28 11:32:47;;;;;;;9.38;1.70;;;27.80;93.90;;;;;;4166467;28;20063;-42
2022/05/28 11:35:32;;;;;;;5.80;1.05;;;27.80;92.60;;;;;;4192361;28;20564;-42
2022/05/28 11:38:00;;;;;;;6.20;1.00;;;27.90;92.90;;;;;;4193295;28;20059;-42
2022/05/28 11:40:32;;;;;;;5.97;0.70;;;27.90;92.90;;;;;;4193622;28;20377;-42
2022/05/28 11:43:09;;;;;;;6.72;0.75;;;27.90;92.80;;;;;;4193561;28;20091;-42
2022/05/28 11:45:45;;;;;;;9.38;1.10;;;27.90;94.10;;;;;;4176248;28;20133;-41
2022/05/28 11:48:28;;;;;;;8.27;1.45;;;27.80;94.20;;;;;;4177017;28;20102;-41
2022/05/28 11:51:29;;;;;;;7.85;1.15;;;27.70;94.30;;;;;;4190584;28;20047;-42
2022/05/28 11:53:54;;;;;;;2.90;1.00;;;27.90;94.90;;;;;;4193845;28;20197;-41
2022/05/28 11:56:22;;;;;;;5.32;0.90;;;27.90;94.90;;;;;;4193508;28;20051;-40
2022/05/28 11:58:47;;;;;;;4.45;0.80;;;27.80;97.70;;;;;;4193840;28;20408;-42
2022/05/28 12:01:19;;;;;;;13.10;1.45;;;28.00;96.90;;;;;;4193463;28;20052;-41
2022/05/28 12:03:44;;;;;;;7.97;1.08;;;28.20;97.30;;;;;;4196871;28;20070;-41
2022/05/28 12:06:22;;;;;;;10.73;0.90;;;28.20;97.00;;;;;;4196993;28;20488;-40
2022/05/28 12:08:47;;;;;;;6.38;0.90;;;28.30;96.50;;;;;;4195877;28;20581;-41
2022/05/28 12:11:48;;;;;;;6.28;0.70;;;28.30;96.90;;;;;;4189327;28;20098;-41
2022/05/28 12:14:32;;;;;;;8.80;0.80;;;28.00;94.10;;;;;;4194778;28;20446;-41
2022/05/28 12:17:19;;;;;;;6.63;0.70;;;28.10;95.30;;;;;;4193938;28;20094;-42
2022/05/28 12:19:46;;;;;;;9.90;0.98;;;28.50;97.80;;;;;;4194664;28;20048;-41
2022/05/28 12:22:24;;;;;;;11.57;1.58;;;28.70;97.00;;;;;;4194512;28;20098;-41
2022/05/28 12:25:15;;;;;;;4.53;1.00;;;29.20;96.10;;;;;;4194777;28;20055;-41
2022/05/28 12:27:46;;;;;;;3.85;0.75;;;29.50;96.30;;;;;;4190112;28;20059;-42
2022/05/28 12:30:22;;;;;;;6.15;1.35;;;29.40;96.30;;;;;;4192902;28;20421;-43
2022/05/28 12:32:46;;;;;;;10.30;1.13;;;29.40;95.50;;;;;;4189295;28;20102;-44
2022/05/28 12:35:25;;;;;;;2.33;0.90;;;29.20;95.20;;;;;;4177814;28;20056;-44
2022/05/28 12:38:12;;;;;;;19.65;1.10;;;29.00;96.00;;;;;;4190261;28;20059;-42
2022/05/28 12:40:36;;;;;;;6.68;0.93;;;28.80;95.40;;;;;;4191534;28;20059;-43
2022/05/28 12:43:19;;;;;;;6.10;1.65;;;28.50;95.70;;;;;;4193400;28;20102;-44